FWKI

Lilongwe International Airport

Lilongwe, Malawi
METAR FWKI 171500Z 06006KT CAVOK 27/11 Q1014 NOSIG
Observed Flight Rules
Oct-17 @ 15:00 UTC (10 hours ago) Visual Flight Rules
Wind Visibility Clouds
60° at 6 knots 10,000+ meters
  • Clear skies
Temperatures Readings
Current 27°C / 81°F
Dewpoint 11°C / 52°F
Humidity 37%
Altimeter 29.94" Hg
Pressure 1014 hPa
Elevation 1229
METAR FWKI 171500Z 06006KT CAVOK 27/11 Q1014 NOSIG
Observed Flight Rules
Oct-17 @ 15:00 UTC
(10 hours ago)
VFR
Wind Visibility
60° at 6 knots 10,000+ meters
Clouds
  • Clear skies
Temperature Dewpoint
27°C / 81°F 11°C / 52°F
Humidity Altimeter Pressure
37% 29.94" Hg 1014 hPa